Time;durP1;ratioP1;P1;durP2;ratioP2;P2;SDS_P1;SDS_P2;PMS_P1;PMS_P2;Temp;Humidity;BMP_temperature;BMP_pressure;BME280_temperature;BME280_humidity;BME280_pressure;Samples;Min_cycle;Max_cycle;Signal;HPM_P1;HPM_P2
2021/03/05 00:41:05;;;;;;;13.07;11.48;;;;;;;6.64;58.00;101758.00;349006;28;57237;-67
2021/03/05 00:41:16;;;;;;;15.27;11.70;;;;;;;6.70;57.44;101752.66;348354;28;72504;-66
2021/03/05 00:41:27;;;;;;;15.65;11.85;;;;;;;6.68;57.58;101756.22;350815;28;1136;-66
2021/03/05 00:41:39;;;;;;;14.13;11.57;;;;;;;6.68;57.79;101762.31;350985;28;1171;-66
2021/03/05 00:41:51;;;;;;;13.95;11.80;;;;;;;6.70;57.37;101755.28;350855;28;1205;-67
2021/03/05 00:42:04;;;;;;;14.98;11.90;;;;;;;6.71;57.17;101756.16;350951;28;1072;-66
2021/03/05 00:42:15;;;;;;;14.57;11.88;;;;;;;6.75;57.43;101758.72;350910;28;1967;-66
2021/03/05 00:42:27;;;;;;;14.30;11.66;;;;;;;6.75;57.58;101769.22;350790;28;998;-66
2021/03/05 00:42:39;;;;;;;13.77;11.43;;;;;;;6.77;56.52;101758.69;350917;28;1129;-66
2021/03/05 00:42:51;;;;;;;13.72;11.54;;;;;;;6.79;57.16;101757.78;350749;28;1154;-66
2021/03/05 00:43:02;;;;;;;13.43;12.00;;;;;;;6.83;57.32;101761.25;350786;28;1069;-67
2021/03/05 00:43:14;;;;;;;13.40;11.88;;;;;;;6.80;57.43;101758.66;350864;28;1076;-66
2021/03/05 00:43:25;;;;;;;13.54;11.98;;;;;;;6.80;57.53;101761.28;350700;28;1077;-67
2021/03/05 00:43:36;;;;;;;13.48;11.60;;;;;;;6.77;57.18;101762.19;350894;28;997;-66
2021/03/05 00:43:47;;;;;;;13.38;11.40;;;;;;;6.72;57.16;101764.03;350830;28;1068;-66
2021/03/05 00:43:58;;;;;;;13.57;11.38;;;;;;;6.70;57.07;101767.56;350755;28;1191;-67
2021/03/05 00:44:09;;;;;;;14.48;11.56;;;;;;;6.66;57.08;101763.22;350782;28;1081;-67
2021/03/05 00:44:21;;;;;;;14.60;11.38;;;;;;;6.59;57.57;101760.72;350705;28;1152;-67
2021/03/05 00:44:32;;;;;;;14.60;11.27;;;;;;;6.65;57.03;101767.63;350766;28;1181;-67
2021/03/05 00:44:43;;;;;;;14.05;11.35;;;;;;;6.61;56.98;101761.53;350856;28;1029;-67
2021/03/05 00:44:54;;;;;;;15.25;11.95;;;;;;;6.60;57.36;101769.44;350815;28;1086;-67
2021/03/05 00:45:07;;;;;;;14.82;11.77;;;;;;;6.53;56.59;101757.31;350750;28;1129;-66
2021/03/05 00:45:21;;;;;;;14.07;11.63;;;;;;;6.49;57.12;101761.72;350727;28;1126;-66
2021/03/05 00:45:32;;;;;;;14.10;11.40;;;;;;;6.57;57.84;101762.47;349146;28;49194;-66
2021/03/05 00:45:43;;;;;;;14.55;11.43;;;;;;;6.58;57.50;101764.22;350811;28;1085;-66
2021/03/05 00:45:55;;;;;;;14.75;11.60;;;;;;;6.60;57.71;101759.81;350725;28;1203;-67
2021/03/05 00:46:06;;;;;;;14.73;11.60;;;;;;;6.58;57.75;101756.34;350653;28;1143;-66
2021/03/05 00:46:17;;;;;;;15.68;11.88;;;;;;;6.67;58.24;101759.72;350721;28;1184;-68
2021/03/05 00:46:29;;;;;;;15.98;11.98;;;;;;;6.69;57.95;101756.19;350693;28;1140;-67
2021/03/05 00:46:40;;;;;;;15.55;11.88;;;;;;;6.73;57.24;101759.63;350612;28;1133;-66
2021/03/05 00:46:52;;;;;;;13.52;11.40;;;;;;;6.67;57.68;101755.34;350633;28;1089;-67
2021/03/05 00:47:04;;;;;;;13.80;11.70;;;;;;;6.60;57.68;101757.19;350621;28;1226;-67
2021/03/05 00:47:15;;;;;;;13.55;12.05;;;;;;;6.62;57.86;101755.41;350728;28;1117;-66
2021/03/05 00:47:26;;;;;;;13.48;11.90;;;;;;;6.64;57.44;101757.16;350833;28;1152;-67
2021/03/05 00:47:37;;;;;;;13.38;11.55;;;;;;;6.64;57.55;101759.78;350830;28;2016;-66
2021/03/05 00:47:49;;;;;;;14.13;11.48;;;;;;;6.66;57.60;101757.97;350779;28;2197;-67
2021/03/05 00:48:01;;;;;;;14.25;11.45;;;;;;;6.64;57.76;101762.41;350777;28;1032;-67
2021/03/05 00:48:12;;;;;;;14.93;11.88;;;;;;;6.65;57.97;101753.63;350750;28;1217;-67
2021/03/05 00:48:23;;;;;;;15.64;12.06;;;;;;;6.62;57.27;101759.78;350763;28;1169;-66
2021/03/05 00:48:34;;;;;;;15.15;11.93;;;;;;;6.61;57.73;101756.28;350830;28;1104;-66
2021/03/05 00:48:46;;;;;;;14.48;12.05;;;;;;;6.66;57.60;101755.38;350803;28;1169;-67
2021/03/05 00:48:57;;;;;;;15.20;12.07;;;;;;;6.70;57.69;101767.56;350960;28;1144;-67
2021/03/05 00:49:08;;;;;;;15.15;11.85;;;;;;;6.70;58.12;101763.16;352144;28;1012;-68
2021/03/05 00:49:20;;;;;;;14.82;11.60;;;;;;;6.74;57.75;101766.63;351893;28;1137;-67
2021/03/05 00:49:31;;;;;;;14.00;11.38;;;;;;;6.69;57.80;101758.81;350876;28;1190;-67
2021/03/05 00:49:42;;;;;;;13.80;11.48;;;;;;;6.68;58.41;101757.06;350934;28;1076;-67
2021/03/05 00:49:53;;;;;;;13.70;11.57;;;;;;;6.67;57.52;101759.72;350769;28;1403;-67
2021/03/05 00:50:06;;;;;;;13.60;11.63;;;;;;;6.73;58.45;101763.13;350892;28;1036;-67
2021/03/05 00:50:19;;;;;;;14.35;12.30;;;;;;;6.79;57.46;101762.19;350926;28;1073;-66
2021/03/05 00:50:30;;;;;;;15.20;12.55;;;;;;;6.81;57.47;101759.53;350862;28;1909;-67
2021/03/05 00:50:41;;;;;;;14.63;12.23;;;;;;;6.83;57.81;101762.97;350919;28;1161;-66
2021/03/05 00:50:52;;;;;;;14.85;12.07;;;;;;;6.81;58.00;101759.53;350777;28;1245;-67
2021/03/05 00:51:04;;;;;;;14.82;11.73;;;;;;;6.78;56.99;101758.66;350912;28;1211;-67
2021/03/05 00:51:15;;;;;;;15.45;11.57;;;;;;;6.71;57.79;101762.28;350849;28;1144;-66
2021/03/05 00:51:26;;;;;;;15.32;11.65;;;;;;;6.68;57.48;101761.47;350880;28;1141;-66
2021/03/05 00:51:37;;;;;;;14.55;11.55;;;;;;;6.68;57.93;101761.47;350921;28;1241;-66
2021/03/05 00:51:49;;;;;;;14.90;11.46;;;;;;;6.64;58.34;101763.25;350763;28;1081;-67
2021/03/05 00:52:00;;;;;;;15.25;11.70;;;;;;;6.62;57.49;101762.41;350897;28;1155;-67
2021/03/05 00:52:11;;;;;;;15.02;11.98;;;;;;;6.65;58.72;101766.75;350966;28;1054;-67
2021/03/05 00:52:23;;;;;;;15.43;12.23;;;;;;;6.58;58.38;101768.59;350891;28;1129;-66
2021/03/05 00:52:35;;;;;;;15.93;12.32;;;;;;;6.64;57.65;101770.28;350838;28;1108;-65
2021/03/05 00:52:49;;;;;;;16.05;12.68;;;;;;;6.60;58.53;101770.31;350818;28;1129;-66
2021/03/05 00:53:00;;;;;;;16.00;12.57;;;;;;;6.61;58.30;101765.94;350041;28;25406;-68
2021/03/05 00:53:12;;;;;;;15.98;12.30;;;;;;;6.65;57.97;101766.75;350889;28;1065;-67
2021/03/05 00:53:23;;;;;;;15.32;12.15;;;;;;;6.72;58.24;101768.41;350913;28;1045;-66
2021/03/05 00:53:34;;;;;;;14.25;11.98;;;;;;;6.75;58.41;101763.09;350808;28;1106;-66
2021/03/05 00:53:45;;;;;;;14.32;11.93;;;;;;;6.77;58.23;101763.94;350828;28;1322;-65
2021/03/05 00:53:56;;;;;;;14.34;11.86;;;;;;;6.75;58.40;101763.97;350797;28;1134;-67
2021/03/05 00:54:08;;;;;;;13.98;11.70;;;;;;;6.81;58.49;101768.25;350774;28;1118;-66
2021/03/05 00:54:19;;;;;;;14.10;11.93;;;;;;;6.83;58.71;101766.50;350964;28;1131;-66
2021/03/05 00:54:30;;;;;;;14.15;11.88;;;;;;;6.88;58.65;101769.03;350812;28;1216;-66
2021/03/05 00:54:41;;;;;;;15.10;12.35;;;;;;;6.89;58.29;101768.16;350890;28;1060;-66
2021/03/05 00:54:52;;;;;;;14.65;11.95;;;;;;;6.86;57.58;101771.69;350922;28;1075;-66
2021/03/05 00:55:06;;;;;;;14.88;12.20;;;;;;;6.82;58.24;101775.25;350792;28;1138;-67
2021/03/05 00:55:17;;;;;;;15.06;12.24;;;;;;;6.85;58.88;101774.34;350896;28;1156;-66
2021/03/05 00:55:28;;;;;;;15.50;12.43;;;;;;;6.86;58.45;101763.81;350813;28;1145;-67
2021/03/05 00:55:40;;;;;;;15.65;12.40;;;;;;;6.89;58.32;101771.63;350852;28;2137;-66
2021/03/05 00:55:51;;;;;;;15.18;12.13;;;;;;;6.88;58.08;101767.28;350898;28;1199;-67
2021/03/05 00:56:03;;;;;;;15.13;11.88;;;;;;;6.86;58.12;101774.31;350775;28;1073;-67
2021/03/05 00:56:14;;;;;;;14.43;11.75;;;;;;;6.87;57.38;101775.16;350840;28;1242;-66
2021/03/05 00:56:25;;;;;;;15.85;12.20;;;;;;;6.85;57.51;101762.06;350682;28;1124;-67
2021/03/05 00:56:36;;;;;;;15.48;12.38;;;;;;;6.86;58.22;101769.06;350810;28;1068;-66
2021/03/05 00:56:47;;;;;;;15.18;12.38;;;;;;;6.84;58.02;101773.50;350832;28;1086;-67
2021/03/05 00:56:58;;;;;;;15.07;12.43;;;;;;;6.83;57.74;101770.84;350787;28;1139;-66
2021/03/05 00:57:10;;;;;;;15.18;12.65;;;;;;;6.88;58.40;101772.53;350786;28;1104;-67
2021/03/05 00:57:21;;;;;;;14.88;12.68;;;;;;;6.92;58.29;101776.88;350749;28;1124;-66
2021/03/05 00:57:32;;;;;;;14.18;12.15;;;;;;;6.87;57.73;101778.69;350777;28;1140;-67
2021/03/05 00:57:43;;;;;;;13.95;12.00;;;;;;;6.91;57.88;101775.13;349421;28;1144;-66
2021/03/05 00:57:54;;;;;;;13.82;12.07;;;;;;;6.89;57.96;101771.63;349384;28;1199;-66
2021/03/05 00:58:05;;;;;;;14.10;12.15;;;;;;;6.89;58.65;101776.88;350581;28;1305;-67
2021/03/05 00:58:16;;;;;;;14.73;12.40;;;;;;;6.92;58.36;101775.97;350695;28;1188;-67
2021/03/05 00:58:27;;;;;;;15.07;12.48;;;;;;;6.92;58.61;101774.25;350746;28;1054;-64
2021/03/05 00:58:39;;;;;;;15.18;12.63;;;;;;;6.90;57.80;101783.03;350780;28;1117;-66
2021/03/05 00:58:50;;;;;;;14.25;12.40;;;;;;;6.88;58.12;101774.28;350784;28;1129;-65
2021/03/05 00:59:02;;;;;;;14.73;12.50;;;;;;;6.90;57.97;101772.53;350778;28;1308;-65
2021/03/05 00:59:13;;;;;;;15.10;12.30;;;;;;;6.87;58.26;101775.16;350671;28;1071;-65
2021/03/05 00:59:24;;;;;;;15.20;12.50;;;;;;;6.88;58.54;101772.53;350786;28;1057;-67
2021/03/05 00:59:35;;;;;;;14.27;12.18;;;;;;;6.88;57.90;101777.81;350938;28;1143;-67
2021/03/05 00:59:46;;;;;;;14.55;12.05;;;;;;;6.85;57.92;101775.19;352221;28;1297;-65
2021/03/05 00:59:57;;;;;;;14.50;11.93;;;;;;;6.80;58.60;101774.41;352146;28;1216;-66
2021/03/05 01:00:11;;;;;;;15.38;12.20;;;;;;;6.86;58.59;101774.31;352063;28;1159;-67
2021/03/05 01:00:23;;;;;;;15.13;12.57;;;;;;;6.86;58.66;101776.94;350198;28;46966;-66
2021/03/05 01:00:34;;;;;;;14.50;12.40;;;;;;;6.87;58.48;101778.69;350886;28;1195;-67
2021/03/05 01:00:45;;;;;;;14.32;12.30;;;;;;;6.82;57.65;101774.41;350965;28;1069;-66
2021/03/05 01:00:57;;;;;;;14.43;12.25;;;;;;;6.76;58.16;101777.97;350837;28;1261;-67
2021/03/05 01:01:08;;;;;;;15.35;12.50;;;;;;;6.70;58.53;101780.69;350728;28;981;-66
2021/03/05 01:01:19;;;;;;;15.80;12.43;;;;;;;6.74;58.01;101779.75;350796;28;1053;-67
2021/03/05 01:01:30;;;;;;;15.77;12.40;;;;;;;6.76;58.16;101770.09;350784;28;1085;-67
2021/03/05 01:01:42;;;;;;;15.25;12.65;;;;;;;6.82;57.95;101777.88;350836;28;1166;-68
2021/03/05 01:01:53;;;;;;;14.50;12.63;;;;;;;6.76;58.10;101781.47;350837;28;1072;-66
2021/03/05 01:02:05;;;;;;;14.88;12.48;;;;;;;6.77;58.18;101777.06;350682;28;1101;-66
2021/03/05 01:02:16;;;;;;;14.93;12.18;;;;;;;6.69;58.07;101777.19;350689;28;1148;-66
2021/03/05 01:02:27;;;;;;;15.60;11.95;;;;;;;6.61;58.19;101776.44;350734;28;1165;-67
2021/03/05 01:02:39;;;;;;;14.56;11.46;;;;;;;6.68;58.27;101778.09;350749;28;1319;-66
2021/03/05 01:02:51;;;;;;;14.52;11.65;;;;;;;6.64;57.91;101772.91;350758;28;1156;-66
2021/03/05 01:03:02;;;;;;;14.70;11.73;;;;;;;6.58;58.48;101779.09;350740;28;1096;-66
2021/03/05 01:03:13;;;;;;;13.57;11.10;;;;;;;6.40;58.92;101778.47;350792;28;1068;-66
2021/03/05 01:03:25;;;;;;;13.25;10.73;;;;;;;6.33;59.39;101782.03;350862;28;1184;-66
2021/03/05 01:03:53;;;;;;;13.80;11.13;;;;;;;6.36;58.98;101782.03;348387;28;70463;-66
2021/03/05 01:04:04;;;;;;;14.68;11.60;;;;;;;6.30;59.25;101782.06;350754;28;1143;-67
2021/03/05 01:04:15;;;;;;;14.27;11.85;;;;;;;6.36;59.80;101783.75;350774;28;1201;-67
2021/03/05 01:04:26;;;;;;;14.13;11.82;;;;;;;6.46;59.91;101782.75;350795;28;1065;-67
2021/03/05 01:04:37;;;;;;;13.63;11.75;;;;;;;6.46;58.60;101782.75;350780;28;1060;-66
2021/03/05 01:04:49;;;;;;;13.98;11.98;;;;;;;6.54;59.75;101785.25;349281;28;1100;-66
2021/03/05 01:05:00;;;;;;;14.55;12.25;;;;;;;6.59;58.80;101783.44;349252;28;1133;-67
2021/03/05 01:05:11;;;;;;;14.50;11.95;;;;;;;6.53;59.43;101786.19;349299;28;1212;-66
2021/03/05 01:05:23;;;;;;;13.07;11.25;;;;;;;6.54;58.76;101785.25;349447;28;1084;-66
2021/03/05 01:05:41;;;;;;;13.82;11.85;;;;;;;6.56;59.29;101783.50;346900;28;69848;-66
2021/03/05 01:05:52;;;;;;;14.57;12.50;;;;;;;6.53;58.64;101784.41;347998;28;1079;-66
2021/03/05 01:06:04;;;;;;;13.63;12.23;;;;;;;6.58;59.03;101786.97;349246;28;1049;-66
2021/03/05 01:06:15;;;;;;;13.60;12.15;;;;;;;6.59;58.57;101784.34;349417;28;1092;-68
2021/03/05 01:06:26;;;;;;;13.57;12.18;;;;;;;6.57;59.38;101783.47;349434;28;1151;-66
2021/03/05 01:06:38;;;;;;;13.77;12.27;;;;;;;6.50;59.20;101786.19;349381;28;1064;-67
2021/03/05 01:06:49;;;;;;;13.50;11.80;;;;;;;6.52;58.52;101787.06;350553;28;1142;-67
2021/03/05 01:07:00;;;;;;;13.75;11.63;;;;;;;6.47;59.32;101788.88;350845;28;1072;-66
2021/03/05 01:07:11;;;;;;;13.38;10.70;;;;;;;6.37;59.07;101777.63;350735;28;1147;-67
2021/03/05 01:07:22;;;;;;;13.68;10.70;;;;;;;6.36;59.17;101783.75;350804;28;1215;-67
2021/03/05 01:07:34;;;;;;;13.90;10.95;;;;;;;6.43;58.83;101785.44;350781;28;1076;-66
2021/03/05 01:07:45;;;;;;;14.32;11.57;;;;;;;6.48;58.81;101791.47;350633;28;1172;-67
2021/03/05 01:07:57;;;;;;;14.02;11.27;;;;;;;6.37;58.58;101781.09;350760;28;1081;-67
2021/03/05 01:08:09;;;;;;;13.50;11.07;;;;;;;6.43;59.53;101790.69;350753;28;1264;-66
2021/03/05 01:08:20;;;;;;;12.73;10.95;;;;;;;6.44;58.82;101785.41;350766;28;1117;-66
2021/03/05 01:08:31;;;;;;;13.38;11.32;;;;;;;6.45;58.99;101778.41;350747;28;1139;-67
2021/03/05 01:08:42;;;;;;;13.23;10.77;;;;;;;6.42;58.02;101789.78;350782;28;1141;-67
2021/03/05 01:08:53;;;;;;;12.55;10.55;;;;;;;6.38;58.63;101790.72;350791;28;1156;-67
2021/03/05 01:09:05;;;;;;;12.45;10.55;;;;;;;6.30;58.66;101789.09;350797;28;1156;-66
2021/03/05 01:09:16;;;;;;;13.20;10.90;;;;;;;6.28;58.86;101787.34;350646;28;1123;-66
2021/03/05 01:09:27;;;;;;;13.77;10.80;;;;;;;6.24;58.64;101787.41;350675;28;1236;-66
2021/03/05 01:09:38;;;;;;;13.00;10.48;;;;;;;6.25;58.90;101794.38;350852;28;1081;-66
2021/03/05 01:09:51;;;;;;;12.52;10.38;;;;;;;6.24;59.29;101788.28;350766;28;1089;-67
2021/03/05 01:10:07;;;;;;;12.57;10.52;;;;;;;6.27;59.47;101788.22;350778;28;1158;-66
2021/03/05 01:10:19;;;;;;;12.88;10.55;;;;;;;6.21;59.55;101793.56;349159;28;48004;-66
2021/03/05 01:10:30;;;;;;;12.93;10.57;;;;;;;6.19;59.53;101784.84;350692;28;1108;-67
2021/03/05 01:10:41;;;;;;;13.27;10.98;;;;;;;6.21;59.45;101793.56;350755;28;1149;-67
2021/03/05 01:10:53;;;;;;;13.88;11.15;;;;;;;6.30;58.86;101786.47;350748;28;1961;-66
2021/03/05 01:11:04;;;;;;;15.63;11.80;;;;;;;6.27;58.43;101785.59;350793;28;1041;-67
2021/03/05 01:11:15;;;;;;;15.18;11.52;;;;;;;6.33;58.72;101786.44;350616;28;1121;-67
2021/03/05 01:11:26;;;;;;;14.10;11.43;;;;;;;6.23;59.16;101786.53;350684;28;1134;-67
2021/03/05 01:11:37;;;;;;;13.65;10.90;;;;;;;6.25;59.51;101791.75;350798;28;1205;-67
2021/03/05 01:11:49;;;;;;;14.15;10.68;;;;;;;6.27;58.75;101788.22;350797;28;2009;-66
2021/03/05 01:12:00;;;;;;;13.43;10.40;;;;;;;6.28;59.15;101789.97;350693;28;1130;-66
2021/03/05 01:12:11;;;;;;;13.98;10.55;;;;;;;6.30;58.85;101791.72;350758;28;1163;-65
2021/03/05 01:12:23;;;;;;;14.70;10.55;;;;;;;6.31;59.70;101791.69;350801;28;1122;-66
2021/03/05 01:12:35;;;;;;;14.00;10.20;;;;;;;6.27;58.74;101787.38;350905;28;1162;-67
2021/03/05 01:12:46;;;;;;;13.60;10.10;;;;;;;6.25;59.25;101790.03;350863;28;1049;-67
2021/03/05 01:12:57;;;;;;;12.88;10.02;;;;;;;6.32;59.71;101795.19;350956;28;1152;-67
2021/03/05 01:13:08;;;;;;;14.46;10.20;;;;;;;6.27;58.93;101788.22;350821;28;1309;-66
2021/03/05 01:13:19;;;;;;;15.32;10.10;;;;;;;6.35;58.98;101789.91;350792;28;1052;-66
2021/03/05 01:13:31;;;;;;;15.18;10.10;;;;;;;6.25;58.53;101792.66;350749;28;1167;-66
2021/03/05 01:13:42;;;;;;;13.32;9.90;;;;;;;6.18;59.29;101801.47;350804;28;1060;-66
2021/03/05 01:13:53;;;;;;;12.60;9.73;;;;;;;6.19;58.66;101797.94;350825;28;1053;-67
2021/03/05 01:14:05;;;;;;;12.80;9.82;;;;;;;6.17;59.18;101793.59;350786;28;1045;-66
2021/03/05 01:14:16;;;;;;;13.63;10.07;;;;;;;6.20;58.72;101798.84;350675;28;2053;-67
2021/03/05 01:14:27;;;;;;;12.88;10.05;;;;;;;6.22;59.21;101805.81;350726;28;1216;-66
2021/03/05 01:14:38;;;;;;;11.40;9.50;;;;;;;6.21;59.06;101800.56;350783;28;1132;-67
2021/03/05 01:14:50;;;;;;;11.02;9.38;;;;;;;6.19;59.68;101803.19;350753;28;1209;-65
2021/03/05 01:15:01;;;;;;;11.30;9.40;;;;;;;6.16;58.98;101795.38;349125;28;1231;-67
2021/03/05 01:15:12;;;;;;;11.35;9.73;;;;;;;6.17;59.68;101797.13;349365;28;1223;-67
2021/03/05 01:15:23;;;;;;;11.57;9.52;;;;;;;6.22;59.64;101794.41;349583;28;1152;-67
2021/03/05 01:15:35;;;;;;;12.13;9.48;;;;;;;6.26;59.26;101791.75;350748;28;1090;-67
2021/03/05 01:15:46;;;;;;;11.20;9.10;;;;;;;6.18;59.41;101796.25;350807;28;1073;-66
2021/03/05 01:15:57;;;;;;;11.18;8.77;;;;;;;6.04;59.49;101800.75;350683;28;1159;-66
2021/03/05 01:16:09;;;;;;;10.82;8.45;;;;;;;5.98;59.76;101801.69;350724;28;1200;-66
2021/03/05 01:16:20;;;;;;;11.25;8.68;;;;;;;6.02;60.04;101803.41;350767;28;1056;-67
2021/03/05 01:16:32;;;;;;;11.48;8.75;;;;;;;5.98;59.17;101800.84;350727;28;1098;-67
2021/03/05 01:16:43;;;;;;;11.75;9.40;;;;;;;5.98;60.12;101798.22;350771;28;1097;-67
2021/03/05 01:16:55;;;;;;;12.18;9.55;;;;;;;5.99;60.05;101799.94;350713;28;1220;-66
2021/03/05 01:17:06;;;;;;;12.80;9.60;;;;;;;6.08;59.86;101802.47;350861;28;1204;-66
2021/03/05 01:17:18;;;;;;;13.38;9.60;;;;;;;6.07;59.95;101795.47;350837;28;1168;-67
2021/03/05 01:17:29;;;;;;;14.32;9.44;;;;;;;6.06;59.84;101793.75;350914;28;1076;-66
2021/03/05 01:17:40;;;;;;;13.75;8.98;;;;;;;6.08;59.95;101794.59;350934;28;1136;-65
2021/03/05 01:17:51;;;;;;;12.38;8.80;;;;;;;6.06;59.56;101796.38;350692;28;1192;-65
2021/03/05 01:18:03;;;;;;;11.32;9.13;;;;;;;6.10;59.63;101806.81;350910;28;1026;-66
2021/03/05 01:18:14;;;;;;;10.57;9.23;;;;;;;6.11;59.87;101802.41;350934;28;1052;-67
2021/03/05 01:18:26;;;;;;;11.57;9.27;;;;;;;6.09;59.82;101802.44;350873;28;1073;-68
2021/03/05 01:18:37;;;;;;;10.90;9.07;;;;;;;6.10;59.75;101798.06;350854;28;1099;-67
2021/03/05 01:18:49;;;;;;;11.10;8.98;;;;;;;6.13;59.88;101808.53;350734;28;1167;-67
2021/03/05 01:19:00;;;;;;;11.02;8.94;;;;;;;6.14;59.62;101805.03;350652;28;1584;-66
2021/03/05 01:19:13;;;;;;;12.15;9.13;;;;;;;6.14;59.56;101799.78;350915;28;1053;-67
2021/03/05 01:19:26;;;;;;;12.27;9.15;;;;;;;6.04;59.70;101800.75;350810;28;1083;-67
2021/03/05 01:19:37;;;;;;;11.88;9.02;;;;;;;6.02;59.24;101792.06;350855;28;1212;-67
2021/03/05 01:19:49;;;;;;;10.90;8.48;;;;;;;6.06;58.93;101799.00;350871;28;1007;-65
2021/03/05 01:20:00;;;;;;;10.00;8.27;;;;;;;6.11;58.84;101799.78;350896;28;1052;-66
2021/03/05 01:20:18;;;;;;;9.73;8.10;;;;;;;5.98;59.31;101791.22;350948;28;1175;-65
2021/03/05 01:20:29;;;;;;;11.13;8.85;;;;;;;6.01;59.29;101803.41;348476;28;71163;-66
2021/03/05 01:20:41;;;;;;;11.18;8.93;;;;;;;6.09;59.57;101793.72;350816;28;1087;-65
2021/03/05 01:20:52;;;;;;;11.65;8.63;;;;;;;5.99;58.59;101798.19;350877;28;1118;-66
2021/03/05 01:21:04;;;;;;;10.82;8.32;;;;;;;5.91;59.41;101795.63;350860;28;1060;-67
2021/03/05 01:21:16;;;;;;;10.48;8.30;;;;;;;5.94;59.20;101794.72;350896;28;1024;-66
2021/03/05 01:21:27;;;;;;;9.02;8.10;;;;;;;6.02;58.90;101799.91;350915;28;1148;-66
2021/03/05 01:21:38;;;;;;;9.30;8.23;;;;;;;6.04;58.69;101799.00;350747;28;1183;-66
2021/03/05 01:21:49;;;;;;;9.50;8.40;;;;;;;6.05;59.46;101802.50;350845;28;1166;-67
2021/03/05 01:22:00;;;;;;;10.45;8.75;;;;;;;6.03;59.17;101799.00;350811;28;1073;-66
2021/03/05 01:22:11;;;;;;;11.02;8.73;;;;;;;6.04;59.39;101801.59;350902;28;1044;-67
2021/03/05 01:22:22;;;;;;;10.86;8.72;;;;;;;6.05;59.25;101803.34;350852;28;1083;-66
2021/03/05 01:22:34;;;;;;;11.35;8.68;;;;;;;6.17;59.32;101802.34;350684;28;1147;-67
2021/03/05 01:22:45;;;;;;;11.20;8.65;;;;;;;6.18;58.86;101800.59;350896;28;1171;-66
2021/03/05 01:22:56;;;;;;;11.23;8.52;;;;;;;6.17;58.66;101796.22;350883;28;1047;-67
2021/03/05 01:23:08;;;;;;;9.77;8.50;;;;;;;6.16;58.55;101795.38;350870;28;1165;-66
2021/03/05 01:23:20;;;;;;;10.07;8.43;;;;;;;6.07;58.54;101792.84;352134;28;1190;-67
2021/03/05 01:23:32;;;;;;;9.95;8.43;;;;;;;5.97;59.18;101806.94;352060;28;1158;-67
2021/03/05 01:23:43;;;;;;;10.00;8.20;;;;;;;5.89;58.37;101797.41;352161;28;1194;-66
2021/03/05 01:23:54;;;;;;;9.90;8.10;;;;;;;5.95;59.21;101799.94;352215;28;1080;-67
2021/03/05 01:24:06;;;;;;;10.18;8.43;;;;;;;6.05;58.58;101795.50;352199;28;1009;-66
2021/03/05 01:24:17;;;;;;;10.07;8.60;;;;;;;6.13;59.99;101800.66;352172;28;1424;-66
2021/03/05 01:24:33;;;;;;;10.07;8.60;;;;;;;6.11;59.05;101797.16;349675;28;71789;-66
2021/03/05 01:24:47;;;;;;;10.15;8.68;;;;;;;6.14;58.27;101798.91;349895;28;24211;-68
2021/03/05 01:24:58;;;;;;;9.30;8.15;;;;;;;6.09;58.69;101794.56;349339;28;1146;-66
2021/03/05 01:25:19;;;;;;;9.85;8.32;;;;;;;6.04;59.25;101800.75;349246;28;1164;-66
2021/03/05 01:25:33;;;;;;;10.73;8.63;;;;;;;6.03;59.37;101797.28;346882;28;70857;-66
2021/03/05 01:25:44;;;;;;;10.80;8.40;;;;;;;5.97;59.01;101796.44;348595;28;23862;-66
2021/03/05 01:25:56;;;;;;;10.35;8.20;;;;;;;5.92;59.67;101801.72;349401;28;1247;-67
2021/03/05 01:26:09;;;;;;;9.68;8.05;;;;;;;5.99;58.94;101800.81;349377;28;1076;-66
2021/03/05 01:26:21;;;;;;;10.57;8.40;;;;;;;6.04;59.44;101801.59;348541;28;23951;-67
2021/03/05 01:26:32;;;;;;;10.65;8.25;;;;;;;5.99;58.97;101799.94;349333;28;1105;-67
2021/03/05 01:26:44;;;;;;;10.05;8.15;;;;;;;6.06;59.46;101796.38;350476;28;1073;-66
2021/03/05 01:26:55;;;;;;;9.18;8.07;;;;;;;6.09;58.45;101798.97;350799;28;1138;-67
2021/03/05 01:27:06;;;;;;;10.18;8.30;;;;;;;6.17;59.51;101799.75;350932;28;1075;-67
2021/03/05 01:27:17;;;;;;;10.55;8.10;;;;;;;6.20;58.57;101804.94;350703;28;1171;-66
2021/03/05 01:27:28;;;;;;;9.55;8.10;;;;;;;6.26;58.98;101790.88;350817;28;1147;-68
2021/03/05 01:27:39;;;;;;;9.15;8.05;;;;;;;6.28;58.77;101795.22;350859;28;1099;-67
2021/03/05 01:27:51;;;;;;;9.30;8.30;;;;;;;6.30;59.08;101791.72;350879;28;1008;-66
2021/03/05 01:28:02;;;;;;;9.40;8.40;;;;;;;6.30;58.91;101791.72;350861;28;1155;-64
2021/03/05 01:28:13;;;;;;;9.95;8.68;;;;;;;6.32;58.85;101796.06;350811;28;1049;-67
2021/03/05 01:28:25;;;;;;;11.05;8.70;;;;;;;6.35;59.06;101789.91;350924;28;1115;-66
2021/03/05 01:28:40;;;;;;;10.82;8.68;;;;;;;6.37;58.99;101796.00;350865;28;1061;-66
2021/03/05 01:28:51;;;;;;;10.15;8.63;;;;;;;6.38;58.74;101792.50;349295;28;49247;-67
2021/03/05 01:29:02;;;;;;;10.54;8.78;;;;;;;6.36;57.79;101789.00;350697;28;1143;-66
2021/03/05 01:29:13;;;;;;;10.90;8.65;;;;;;;6.39;58.30;101795.09;350889;28;1038;-66
2021/03/05 01:29:25;;;;;;;10.55;8.55;;;;;;;6.34;58.62;101796.91;350798;28;1109;-68
2021/03/05 01:29:36;;;;;;;10.50;8.32;;;;;;;6.27;58.58;101795.25;350897;28;1025;-68
2021/03/05 01:29:47;;;;;;;10.25;8.25;;;;;;;6.19;58.68;101797.94;350926;28;1179;-68
2021/03/05 01:29:58;;;;;;;10.27;8.20;;;;;;;6.20;57.95;101798.84;350689;28;1216;-66
2021/03/05 01:30:11;;;;;;;10.57;7.90;;;;;;;6.23;58.74;101789.16;350810;28;1231;-68
2021/03/05 01:30:23;;;;;;;10.98;8.00;;;;;;;6.17;57.85;101801.47;350866;28;1133;-66
2021/03/05 01:30:34;;;;;;;10.13;8.07;;;;;;;6.08;58.37;101803.31;350883;28;1068;-66
2021/03/05 01:30:46;;;;;;;8.75;7.63;;;;;;;6.05;58.07;101799.88;350816;28;1126;-67
2021/03/05 01:30:57;;;;;;;9.95;7.75;;;;;;;6.05;58.09;101802.50;350576;28;1209;-67
2021/03/05 01:31:08;;;;;;;10.15;7.97;;;;;;;6.05;58.39;101799.88;349273;28;1906;-66
2021/03/05 01:31:19;;;;;;;10.82;8.40;;;;;;;6.17;57.86;101802.34;348068;28;1049;-67
2021/03/05 01:31:31;;;;;;;10.63;8.35;;;;;;;6.18;59.00;101790.09;347938;28;1094;-67
2021/03/05 01:31:42;;;;;;;10.68;8.23;;;;;;;6.21;58.68;101800.56;348037;28;1089;-67
2021/03/05 01:31:53;;;;;;;11.10;8.10;;;;;;;6.23;58.62;101798.78;347917;28;1061;-67
2021/03/05 01:32:05;;;;;;;11.23;8.43;;;;;;;6.27;58.16;101792.63;347995;28;1152;-67
2021/03/05 01:32:16;;;;;;;12.18;8.23;;;;;;;6.09;57.72;101798.97;348042;28;1089;-67
2021/03/05 01:32:27;;;;;;;10.90;8.13;;;;;;;6.14;58.05;101801.50;347998;28;1098;-67
2021/03/05 01:32:40;;;;;;;10.15;7.80;;;;;;;6.09;58.78;101798.97;347854;28;1179;-67
2021/03/05 01:32:51;;;;;;;9.82;8.13;;;;;;;6.14;58.13;101807.66;348184;28;1109;-66
2021/03/05 01:33:03;;;;;;;9.77;8.25;;;;;;;6.15;58.13;101804.13;349763;28;1145;-67
2021/03/05 01:33:14;;;;;;;9.72;8.22;;;;;;;6.20;58.79;101804.94;350678;28;1065;-66
2021/03/05 01:33:25;;;;;;;9.43;7.88;;;;;;;6.20;58.23;101804.94;350809;28;1333;-67
2021/03/05 01:33:37;;;;;;;9.70;7.95;;;;;;;6.19;58.30;101800.56;350843;28;1094;-65
2021/03/05 01:33:48;;;;;;;9.85;8.23;;;;;;;6.19;58.85;101816.31;350782;28;1060;-68
2021/03/05 01:34:01;;;;;;;9.88;8.25;;;;;;;6.24;59.04;101808.41;350811;28;1117;-66
2021/03/05 01:34:20;;;;;;;10.25;8.13;;;;;;;6.22;57.67;101803.19;348464;28;71921;-67
2021/03/05 01:34:31;;;;;;;9.63;8.00;;;;;;;6.23;58.52;101798.78;350779;28;1538;-66
2021/03/05 01:34:42;;;;;;;9.68;8.10;;;;;;;6.26;58.07;101804.88;350688;28;1147;-66
2021/03/05 01:34:53;;;;;;;10.35;8.10;;;;;;;6.30;58.08;101800.44;350877;28;1085;-66
2021/03/05 01:35:11;;;;;;;10.52;8.30;;;;;;;6.36;57.93;101789.88;350892;28;1072;-67
2021/03/05 01:35:25;;;;;;;9.88;8.10;;;;;;;6.37;57.87;101793.38;348404;28;71771;-66
2021/03/05 01:35:36;;;;;;;9.75;7.97;;;;;;;6.25;58.63;101805.75;349124;28;48133;-67
2021/03/05 01:35:48;;;;;;;9.07;7.80;;;;;;;6.19;57.71;101799.72;350837;28;1090;-66
2021/03/05 01:36:00;;;;;;;9.18;7.80;;;;;;;6.17;58.42;101802.34;350908;28;1084;-67
2021/03/05 01:36:11;;;;;;;8.60;7.68;;;;;;;6.23;57.93;101796.16;350777;28;1045;-66